Time;durP1;ratioP1;P1;durP2;ratioP2;P2;SDS_P1;SDS_P2;PMS_P1;PMS_P2;Temp;Humidity;BMP_temperature;BMP_pressure;BME280_temperature;BME280_humidity;BME280_pressure;Samples;Min_cycle;Max_cycle;Signal;HPM_P1;HPM_P2
2023/02/24 00:01:07;;;;;;;20.47;5.60;;;;;;;4.11;100.00;100085.19;5079460;28;20474;-74
2023/02/24 00:03:36;;;;;;;21.97;4.70;;;;;;;4.08;100.00;100080.09;5075496;28;20466;-69
2023/02/24 00:06:08;;;;;;;20.83;6.03;;;;;;;4.05;100.00;100061.78;5079923;28;20486;-71
2023/02/24 00:08:35;;;;;;;15.63;6.13;;;;;;;4.07;100.00;100069.63;5065940;28;20482;-69
2023/02/24 00:11:09;;;;;;;23.30;5.03;;;;;;;4.03;100.00;100074.25;5060479;28;20477;-72
2023/02/24 00:13:36;;;;;;;14.70;5.33;;;;;;;3.99;100.00;100072.75;5072318;28;21635;-70
2023/02/24 00:16:04;;;;;;;11.83;5.53;;;;;;;4.05;100.00;100066.22;5062972;28;20508;-73
2023/02/24 00:18:32;;;;;;;16.60;5.57;;;;;;;4.05;100.00;100061.78;5061894;28;20546;-72
2023/02/24 00:21:04;;;;;;;20.13;5.63;;;;;;;4.02;100.00;100061.97;5071384;28;20476;-70
2023/02/24 00:23:31;;;;;;;22.03;4.90;;;;;;;3.89;100.00;100059.31;5078455;28;20538;-72
2023/02/24 00:26:00;;;;;;;19.43;4.83;;;;;;;3.77;100.00;100060.97;5065539;28;20567;-73
2023/02/24 00:28:29;;;;;;;19.90;5.50;;;;;;;3.70;100.00;100045.63;5061110;28;20449;-71
2023/02/24 00:30:56;;;;;;;12.50;4.70;;;;;;;3.60;100.00;100032.16;5060227;28;20850;-75
2023/02/24 00:33:23;;;;;;;22.50;5.40;;;;;;;3.49;100.00;100034.66;5063922;28;20483;-76
2023/02/24 00:35:50;;;;;;;16.40;4.47;;;;;;;3.54;100.00;100035.19;5070367;28;20984;-73
2023/02/24 00:38:16;;;;;;;25.47;5.50;;;;;;;3.58;100.00;100032.25;5071486;28;20448;-75
2023/02/24 00:40:44;;;;;;;15.13;4.77;;;;;;;3.69;100.00;100022.78;5076267;28;20483;-74
2023/02/24 00:43:11;;;;;;;21.53;6.63;;;;;;;3.84;100.00;100026.19;5083222;28;20463;-75
2023/02/24 00:45:39;;;;;;;19.33;6.10;;;;;;;3.83;100.00;100038.56;5076100;28;20472;-76
2023/02/24 00:48:09;;;;;;;14.53;4.40;;;;;;;3.96;100.00;100035.94;5084668;28;20443;-76
2023/02/24 00:50:37;;;;;;;12.53;4.70;;;;;;;4.04;100.00;100023.03;5064762;28;20535;-74
2023/02/24 00:53:05;;;;;;;14.53;4.10;;;;;;;4.18;100.00;100018.59;5081378;28;20461;-71
2023/02/24 00:55:35;;;;;;;14.10;4.13;;;;;;;4.25;100.00;100020.75;5077397;28;20953;-75
2023/02/24 00:58:02;;;;;;;20.73;5.10;;;;;;;4.28;100.00;100017.84;5084171;28;20463;-75
2023/02/24 01:00:34;;;;;;;26.43;4.87;;;;;;;4.31;100.00;100014.16;5063853;28;20480;-75
2023/02/24 01:03:03;;;;;;;24.93;5.47;;;;;;;4.34;100.00;100016.63;5069971;28;20496;-73
2023/02/24 01:05:29;;;;;;;17.33;5.33;;;;;;;4.27;100.00;100020.59;5071638;28;20464;-75
2023/02/24 01:07:57;;;;;;;14.23;4.07;;;;;;;4.34;100.00;100019.25;5084752;28;20460;-72
2023/02/24 01:10:26;;;;;;;22.87;5.50;;;;;;;4.39;100.00;100016.28;5067424;28;20509;-74
2023/02/24 01:12:52;;;;;;;21.57;4.63;;;;;;;4.35;100.00;100013.00;5071874;28;20479;-71
2023/02/24 01:15:21;;;;;;;15.80;5.03;;;;;;;4.38;100.00;100010.13;5079852;28;20545;-71
2023/02/24 01:17:48;;;;;;;20.37;4.73;;;;;;;4.43;100.00;100010.66;5044313;28;20453;-71
2023/02/24 01:20:17;;;;;;;26.50;4.67;;;;;;;4.41;100.00;100015.22;5066181;28;20457;-71
2023/02/24 01:22:45;;;;;;;20.80;4.13;;;;;;;4.42;100.00;100006.31;5084204;28;20456;-73
2023/02/24 01:25:12;;;;;;;22.47;3.63;;;;;;;4.45;100.00;100005.28;5084119;28;20421;-73
2023/02/24 01:27:40;;;;;;;22.33;4.77;;;;;;;4.48;100.00;100000.59;5080706;28;20480;-73
2023/02/24 01:30:12;;;;;;;13.20;5.20;;;;;;;4.48;100.00;99997.13;5070498;28;20468;-70
2023/02/24 01:32:39;;;;;;;12.30;3.50;;;;;;;4.46;100.00;99984.00;5084504;28;20461;-72
2023/02/24 01:35:06;;;;;;;12.37;5.60;;;;;;;4.42;100.00;99979.00;5083961;28;20937;-72
2023/02/24 01:37:34;;;;;;;15.00;3.87;;;;;;;4.41;100.00;99986.09;5083112;28;20490;-72
2023/02/24 01:40:08;;;;;;;15.63;6.00;;;;;;;4.36;100.00;99982.94;5083600;28;20440;-72
2023/02/24 01:42:34;;;;;;;15.37;3.90;;;;;;;4.30;100.00;99980.72;5043028;28;20469;-71
2023/02/24 01:45:20;;;;;;;18.83;4.40;;;;;;;4.25;100.00;99977.53;5069155;28;20648;-71
2023/02/24 01:47:47;;;;;;;12.07;4.50;;;;;;;4.29;100.00;99973.75;5083535;28;20479;-71
2023/02/24 01:50:16;;;;;;;24.57;4.70;;;;;;;4.34;100.00;99963.69;5083304;28;20511;-71
2023/02/24 01:52:47;;;;;;;18.30;4.73;;;;;;;4.29;100.00;99953.41;5082337;28;21416;-71
2023/02/24 01:55:18;;;;;;;17.03;4.90;;;;;;;4.41;100.00;99943.75;5082849;28;20509;-70
2023/02/24 01:57:46;;;;;;;16.10;6.10;;;;;;;4.38;100.00;99943.13;5082901;28;20468;-70
2023/02/24 02:00:36;;;;;;;12.83;4.77;;;;;;;4.34;100.00;99934.56;5082342;28;20984;-71
2023/02/24 02:03:07;;;;;;;22.13;5.97;;;;;;;4.32;100.00;99936.44;5083147;28;20506;-69
2023/02/24 02:05:34;;;;;;;19.53;6.00;;;;;;;4.35;100.00;99946.81;5083322;28;20481;-70
2023/02/24 02:08:03;;;;;;;25.37;6.67;;;;;;;4.37;100.00;99933.50;5074060;28;20482;-70
2023/02/24 02:10:31;;;;;;;14.00;4.50;;;;;;;4.44;100.00;99930.28;5073851;28;20496;-71
2023/02/24 02:13:03;;;;;;;12.87;4.60;;;;;;;4.47;100.00;99913.34;5073427;28;20544;-71
2023/02/24 02:15:32;;;;;;;26.67;5.63;;;;;;;4.51;100.00;99914.81;5071352;28;20492;-69
2023/02/24 02:18:04;;;;;;;14.97;5.07;;;;;;;4.49;100.00;99911.44;5083107;28;20435;-70
2023/02/24 02:20:54;;;;;;;21.53;7.30;;;;;;;4.47;100.00;99918.66;5066547;28;20470;-70
2023/02/24 02:23:53;;;;;;;18.93;6.20;;;;;;;4.44;100.00;99910.91;5081791;28;20449;-70
2023/02/24 02:26:40;;;;;;;26.33;5.63;;;;;;;4.48;100.00;99907.13;5076033;28;20558;-70
2023/02/24 02:29:31;;;;;;;24.57;5.50;;;;;;;4.36;100.00;99902.66;5078064;28;20875;-71
2023/02/24 02:32:17;;;;;;;16.37;7.20;;;;;;;4.33;100.00;99896.66;5062736;28;21021;-71
2023/02/24 02:34:50;;;;;;;20.57;6.53;;;;;;;4.15;100.00;99892.69;5083425;28;20518;-71
2023/02/24 02:37:24;;;;;;;21.30;5.70;;;;;;;4.20;100.00;99887.03;5081375;28;20548;-72
2023/02/24 02:39:57;;;;;;;13.17;5.70;;;;;;;4.23;100.00;99882.38;5083136;28;20627;-72
2023/02/24 02:42:28;;;;;;;12.93;6.07;;;;;;;4.17;100.00;99884.59;5081941;28;20496;-72
2023/02/24 02:45:04;;;;;;;12.40;5.50;;;;;;;4.13;100.00;99878.69;5083091;28;20421;-70
2023/02/24 02:47:35;;;;;;;17.43;6.60;;;;;;;4.09;100.00;99875.41;5081332;28;20479;-71
2023/02/24 02:50:07;;;;;;;14.20;4.83;;;;;;;4.09;100.00;99864.00;5082312;28;20514;-72
2023/02/24 02:52:38;;;;;;;16.57;4.33;;;;;;;4.15;100.00;99872.34;5081806;28;20461;-71
2023/02/24 02:55:08;;;;;;;13.00;5.40;;;;;;;4.07;100.00;99865.91;5082605;28;20449;-71
2023/02/24 02:57:36;;;;;;;15.53;6.53;;;;;;;4.07;100.00;99866.75;5080880;28;20469;-71
2023/02/24 03:00:20;;;;;;;13.10;3.87;;;;;;;3.97;100.00;99863.06;5081790;28;20480;-71
2023/02/24 03:02:49;;;;;;;16.50;4.80;;;;;;;4.02;100.00;99863.59;5082026;28;20476;-69
2023/02/24 03:05:20;;;;;;;26.40;4.90;;;;;;;3.98;100.00;99850.69;5081228;28;20442;-71
2023/02/24 03:07:50;;;;;;;12.17;4.70;;;;;;;4.00;100.00;99852.28;5082205;28;20458;-71
2023/02/24 03:10:21;;;;;;;16.03;4.57;;;;;;;3.85;100.00;99848.91;5081476;28;20845;-71
2023/02/24 03:12:50;;;;;;;11.13;4.50;;;;;;;3.72;100.00;99854.19;5081935;28;20492;-70
2023/02/24 03:15:19;;;;;;;9.40;4.40;;;;;;;3.66;100.00;99857.25;5081578;28;20461;-71
2023/02/24 03:17:48;;;;;;;16.33;4.10;;;;;;;3.58;100.00;99826.09;5081030;28;20458;-71
2023/02/24 03:20:21;;;;;;;9.47;4.13;;;;;;;3.40;100.00;99845.84;5081347;28;20877;-71
2023/02/24 03:22:52;;;;;;;8.37;3.60;;;;;;;3.37;100.00;99836.34;5081628;28;20448;-71
2023/02/24 03:25:22;;;;;;;15.53;3.90;;;;;;;3.33;100.00;99841.94;5080686;28;20482;-71
2023/02/24 03:27:51;;;;;;;17.73;5.07;;;;;;;3.32;100.00;99838.44;5081482;28;20459;-70
2023/02/24 03:30:22;;;;;;;16.07;3.80;;;;;;;3.23;100.00;99841.72;5080688;28;20447;-70
2023/02/24 03:32:54;;;;;;;17.27;3.80;;;;;;;3.12;100.00;99836.31;5066021;28;20460;-70
2023/02/24 03:35:24;;;;;;;14.70;4.43;;;;;;;3.11;100.00;99832.00;5070503;28;20443;-71
2023/02/24 03:37:54;;;;;;;13.37;5.60;;;;;;;3.12;100.00;99823.09;5062245;28;20436;-70
2023/02/24 03:40:21;;;;;;;15.07;5.20;;;;;;;2.98;100.00;99824.84;5062050;28;20957;-70
2023/02/24 03:42:51;;;;;;;10.53;3.40;;;;;;;2.98;100.00;99832.78;5071097;28;20463;-71
2023/02/24 03:45:21;;;;;;;10.07;3.30;;;;;;;2.89;100.00;99824.66;5080859;28;20440;-71
2023/02/24 03:47:48;;;;;;;12.70;4.47;;;;;;;2.87;100.00;99824.75;5041922;28;20449;-70
2023/02/24 03:50:17;;;;;;;9.30;3.47;;;;;;;2.88;100.00;99826.41;5056308;28;20514;-70
2023/02/24 03:52:49;;;;;;;13.90;3.87;;;;;;;2.86;100.00;99824.84;5081727;28;20460;-70
2023/02/24 03:55:21;;;;;;;9.30;3.03;;;;;;;2.91;100.00;99807.75;5040896;28;20438;-70
2023/02/24 03:57:58;;;;;;;16.63;3.77;;;;;;;2.72;100.00;99807.28;5068749;28;20480;-69
2023/02/24 04:00:34;;;;;;;9.63;3.17;;;;;;;2.58;100.00;99816.94;5079445;28;20463;-69
2023/02/24 04:03:10;;;;;;;6.60;2.90;;;;;;;2.43;100.00;99810.88;5081369;28;20462;-71
2023/02/24 04:05:46;;;;;;;19.10;3.20;;;;;;;2.47;100.00;99814.16;5080824;28;20467;-69
2023/02/24 04:08:15;;;;;;;6.80;2.70;;;;;;;2.51;100.00;99814.81;5081041;28;20450;-70
2023/02/24 04:10:51;;;;;;;10.30;3.90;;;;;;;2.43;100.00;99817.94;5080370;28;20515;-70
2023/02/24 04:13:21;;;;;;;10.53;3.73;;;;;;;2.29;100.00;99815.34;5081158;28;20520;-70
2023/02/24 04:15:56;;;;;;;10.37;2.80;;;;;;;2.23;100.00;99811.31;5079699;28;20480;-70
2023/02/24 04:18:27;;;;;;;7.60;3.30;;;;;;;2.30;100.00;99817.06;5080171;28;20458;-69
2023/02/24 04:20:55;;;;;;;7.60;2.33;;;;;;;2.10;100.00;99811.25;5080697;28;20484;-69
2023/02/24 04:23:26;;;;;;;10.63;3.30;;;;;;;2.19;100.00;99800.13;5080618;28;21035;-70
2023/02/24 04:25:55;;;;;;;19.10;3.33;;;;;;;2.14;100.00;99810.13;5079776;28;20546;-69
2023/02/24 04:28:22;;;;;;;6.33;2.80;;;;;;;2.06;100.00;99809.75;5080497;28;20435;-70
2023/02/24 04:30:50;;;;;;;9.60;3.13;;;;;;;2.03;100.00;99807.31;5080119;28;20481;-70
2023/02/24 04:33:17;;;;;;;9.43;3.30;;;;;;;2.01;100.00;99798.66;5080608;28;20458;-70
2023/02/24 04:35:45;;;;;;;19.57;5.07;;;;;;;1.95;100.00;99801.69;5080174;28;20487;-70
2023/02/24 04:38:12;;;;;;;13.33;4.50;;;;;;;1.97;100.00;99791.88;5081385;28;20422;-70
2023/02/24 04:40:41;;;;;;;7.70;4.33;;;;;;;1.96;100.00;99782.28;5075781;28;20494;-71
2023/02/24 04:43:08;;;;;;;8.93;3.40;;;;;;;1.88;100.00;99780.13;5061114;28;20450;-70
2023/02/24 04:45:35;;;;;;;11.83;3.40;;;;;;;1.83;100.00;99775.13;5068988;28;20494;-69
2023/02/24 04:48:11;;;;;;;17.77;3.70;;;;;;;1.82;100.00;99772.59;5072397;28;21008;-69
2023/02/24 04:50:39;;;;;;;10.53;2.83;;;;;;;1.78;100.00;99773.75;5068234;28;20462;-71
2023/02/24 04:53:09;;;;;;;8.00;3.20;;;;;;;1.70;100.00;99771.56;5069819;28;20469;-70
2023/02/24 04:55:39;;;;;;;11.60;3.97;;;;;;;1.64;100.00;99772.81;5075314;28;20571;-70
2023/02/24 04:58:08;;;;;;;18.10;3.87;;;;;;;1.68;100.00;99770.81;5079495;28;20455;-70
2023/02/24 05:00:35;;;;;;;16.23;4.53;;;;;;;1.71;100.00;99769.81;5076239;28;20474;-71
2023/02/24 05:03:03;;;;;;;14.83;3.33;;;;;;;1.80;100.00;99753.41;5064264;28;20487;-70
2023/02/24 05:05:32;;;;;;;15.53;3.97;;;;;;;1.74;100.00;99740.63;5058636;28;20485;-70
2023/02/24 05:08:02;;;;;;;10.20;3.00;;;;;;;1.84;100.00;99745.22;5080467;28;20434;-70
2023/02/24 05:10:32;;;;;;;8.40;3.17;;;;;;;1.88;100.00;99745.88;5064649;28;20476;-71
2023/02/24 05:12:59;;;;;;;13.33;3.53;;;;;;;1.87;100.00;99739.75;5058032;28;20478;-70
2023/02/24 05:15:30;;;;;;;9.77;3.77;;;;;;;1.95;100.00;99741.06;5060556;28;20455;-72
2023/02/24 05:17:58;;;;;;;13.50;4.20;;;;;;;1.99;100.00;99735.47;5079610;28;20916;-71
2023/02/24 05:23:10;;;;;;;16.63;3.67;;;;;;;1.97;100.00;99723.34;5064204;28;20514;-72
2023/02/24 05:25:37;;;;;;;9.47;3.10;;;;;;;1.91;100.00;99714.03;5046143;28;20486;-70
2023/02/24 05:28:05;;;;;;;7.60;2.83;;;;;;;1.96;100.00;99708.44;5057878;28;20452;-70
2023/02/24 05:30:33;;;;;;;11.87;3.37;;;;;;;2.11;100.00;99699.56;5055506;28;20481;-80
2023/02/24 05:33:00;;;;;;;11.97;2.77;;;;;;;2.23;100.00;99704.03;5061843;28;20472;-79
2023/02/24 05:35:27;;;;;;;7.93;2.80;;;;;;;2.28;100.00;99694.97;5054770;28;20531;-78
2023/02/24 05:37:57;;;;;;;12.27;3.23;;;;;;;2.38;100.00;99696.06;5057403;28;20529;-79
2023/02/24 05:40:24;;;;;;;9.90;2.80;;;;;;;2.44;100.00;99696.47;5065231;28;20458;-78
2023/02/24 05:42:52;;;;;;;5.33;2.10;;;;;;;2.48;100.00;99694.47;5063634;28;20459;-78
2023/02/24 05:45:19;;;;;;;9.50;2.80;;;;;;;2.47;100.00;99702.53;5065209;28;20441;-77
2023/02/24 05:47:47;;;;;;;11.67;2.70;;;;;;;2.55;100.00;99697.53;5066631;28;20442;-78
2023/02/24 05:50:14;;;;;;;6.70;2.40;;;;;;;2.41;100.00;99680.88;5063417;28;20492;-78
2023/02/24 05:52:44;;;;;;;9.23;2.30;;;;;;;2.51;100.00;99674.97;5057340;28;21038;-78
2023/02/24 05:55:12;;;;;;;10.87;2.87;;;;;;;2.53;100.00;99680.97;5061324;28;20451;-82
2023/02/24 05:57:40;;;;;;;6.53;2.00;;;;;;;2.69;100.00;99676.38;5055770;28;20539;-77
2023/02/24 06:00:14;;;;;;;8.10;2.30;;;;;;;2.52;100.00;99666.09;5057326;28;20452;-76
2023/02/24 06:02:48;;;;;;;8.40;4.20;;;;;;;2.68;100.00;99655.34;5054154;28;20452;-79
2023/02/24 06:05:25;;;;;;;9.27;2.20;;;;;;;2.78;100.00;99653.78;5061239;28;20892;-79
2023/02/24 06:08:01;;;;;;;4.50;1.83;;;;;;;2.69;100.00;99660.53;5067581;28;20534;-79
2023/02/24 06:10:32;;;;;;;8.43;2.30;;;;;;;2.54;100.00;99648.38;5061988;28;20552;-79
2023/02/24 06:12:59;;;;;;;4.77;2.37;;;;;;;2.50;100.00;99639.84;5062469;28;20524;-77
2023/02/24 06:15:26;;;;;;;6.77;2.70;;;;;;;2.48;100.00;99641.69;5058860;28;20468;-78
2023/02/24 06:17:55;;;;;;;8.50;3.23;;;;;;;2.55;100.00;99629.81;5060773;28;20473;-79
2023/02/24 06:20:25;;;;;;;9.43;2.80;;;;;;;2.33;100.00;99627.78;5057659;28;20540;-80
2023/02/24 06:22:53;;;;;;;9.87;2.23;;;;;;;2.51;100.00;99622.19;5066786;28;20450;-80
2023/02/24 06:25:23;;;;;;;9.33;2.40;;;;;;;2.38;100.00;99620.41;5065744;28;20446;-79
2023/02/24 06:27:52;;;;;;;5.43;2.77;;;;;;;2.38;100.00;99620.41;5066511;28;20458;-80
2023/02/24 06:30:20;;;;;;;7.60;2.33;;;;;;;2.29;100.00;99612.25;5059515;28;20540;-79
2023/02/24 06:32:47;;;;;;;13.57;3.00;;;;;;;2.32;100.00;99604.13;5057782;28;20485;-79
2023/02/24 06:35:14;;;;;;;9.90;2.50;;;;;;;2.25;100.00;99607.16;5057301;28;20477;-79
2023/02/24 06:37:42;;;;;;;5.93;1.90;;;;;;;2.38;100.00;99609.00;5054113;28;20471;-79
2023/02/24 06:40:14;;;;;;;6.27;2.40;;;;;;;2.40;100.00;99607.94;5055040;28;20449;-79
2023/02/24 06:42:44;;;;;;;12.20;2.97;;;;;;;2.54;100.00;99600.88;5062177;28;20487;-79
2023/02/24 06:45:12;;;;;;;8.63;2.87;;;;;;;2.55;100.00;99600.78;5055025;28;20455;-79
2023/02/24 06:47:38;;;;;;;7.80;3.63;;;;;;;2.45;100.00;99594.44;5047751;28;20460;-78
2023/02/24 06:50:06;;;;;;;8.43;3.37;;;;;;;2.45;100.00;99595.28;5055200;28;20481;-79
2023/02/24 06:52:33;;;;;;;12.57;2.53;;;;;;;2.41;100.00;99592.94;5059352;28;20514;-79
2023/02/24 06:55:03;;;;;;;8.57;2.50;;;;;;;2.51;100.00;99580.81;5061832;28;20495;-77
2023/02/24 06:57:31;;;;;;;10.90;2.60;;;;;;;2.51;100.00;99586.09;5061355;28;20479;-78
2023/02/24 06:59:58;;;;;;;9.67;3.30;;;;;;;2.49;100.00;99587.16;5068828;28;20454;-79
2023/02/24 07:02:29;;;;;;;7.17;2.37;;;;;;;2.52;100.00;99585.16;5069766;28;20505;-78
2023/02/24 07:04:57;;;;;;;12.67;2.67;;;;;;;2.62;100.00;99578.28;5064137;28;20468;-79
2023/02/24 07:07:24;;;;;;;5.57;1.93;;;;;;;2.60;100.00;99572.28;5072449;28;20513;-78
2023/02/24 07:09:50;;;;;;;7.87;2.30;;;;;;;2.60;100.00;99574.91;5065414;28;20447;-79
2023/02/24 07:12:19;;;;;;;9.27;2.47;;;;;;;2.69;100.00;99573.44;5071932;28;20776;-77
2023/02/24 07:14:49;;;;;;;5.00;2.00;;;;;;;2.62;100.00;99565.09;5066159;28;20471;-78
2023/02/24 07:17:17;;;;;;;11.00;3.37;;;;;;;2.65;100.00;99561.38;5063022;28;20492;-77
2023/02/24 07:19:44;;;;;;;6.57;2.50;;;;;;;2.74;100.00;99557.25;5061265;28;20478;-79
2023/02/24 07:22:14;;;;;;;7.10;3.70;;;;;;;2.65;100.00;99545.56;5068130;28;20461;-79
2023/02/24 07:24:44;;;;;;;9.33;3.13;;;;;;;2.75;100.00;99556.31;5069868;28;20486;-79
2023/02/24 07:27:20;;;;;;;8.90;2.70;;;;;;;2.77;100.00;99541.22;5060278;28;20479;-82
2023/02/24 07:29:49;;;;;;;4.57;2.10;;;;;;;2.78;100.00;99545.56;5053496;28;20455;-81
2023/02/24 07:32:16;;;;;;;12.13;2.77;;;;;;;2.73;100.00;99537.94;5058087;28;20582;-80
2023/02/24 07:34:43;;;;;;;9.30;3.03;;;;;;;2.62;100.00;99536.06;5057413;28;20470;-81
2023/02/24 07:37:12;;;;;;;8.33;2.30;;;;;;;2.64;100.00;99535.97;5062990;28;20490;-80
2023/02/24 07:39:39;;;;;;;7.27;2.37;;;;;;;2.79;100.00;99524.28;5064757;28;20456;-79
2023/02/24 07:42:07;;;;;;;7.63;3.13;;;;;;;2.91;100.00;99513.84;5060745;28;20481;-81
2023/02/24 07:44:34;;;;;;;7.10;2.13;;;;;;;2.85;100.00;99514.25;5061145;28;20436;-81
2023/02/24 07:47:06;;;;;;;7.27;2.87;;;;;;;2.82;100.00;99507.41;5074866;28;20491;-81
2023/02/24 07:49:33;;;;;;;8.53;2.40;;;;;;;2.89;100.00;99500.75;5057255;28;20447;-82
2023/02/24 07:52:00;;;;;;;11.63;2.67;;;;;;;2.99;100.00;99508.84;5056842;28;20558;-76
2023/02/24 07:54:28;;;;;;;9.37;2.67;;;;;;;2.78;100.00;99501.50;5062620;28;20460;-78
2023/02/24 07:56:57;;;;;;;15.33;2.60;;;;;;;2.59;100.00;99496.69;5067182;28;20543;-78
2023/02/24 07:59:25;;;;;;;2.50;1.90;;;;;;;2.78;100.00;99483.03;5060483;28;20452;-79
2023/02/24 08:01:54;;;;;;;4.00;2.30;;;;;;;2.72;100.00;99482.63;5064711;28;20499;-77
2023/02/24 08:04:25;;;;;;;9.77;1.93;;;;;;;3.05;100.00;99481.16;5055886;28;20545;-76
2023/02/24 08:06:56;;;;;;;6.93;2.23;;;;;;;3.17;100.00;99477.59;5068354;28;20502;-79
2023/02/24 08:12:06;;;;;;;11.37;2.67;;;;;;;3.07;100.00;99476.59;5063466;28;20491;-71
2023/02/24 08:14:34;;;;;;;5.50;2.87;;;;;;;2.84;100.00;99481.75;5062129;28;20446;-70
2023/02/24 08:17:04;;;;;;;5.87;2.20;;;;;;;2.86;100.00;99471.06;5070169;28;20848;-70
2023/02/24 08:19:38;;;;;;;10.40;2.50;;;;;;;3.00;100.00;99452.44;5071036;28;20469;-71
2023/02/24 08:22:18;;;;;;;9.10;2.23;;;;;;;2.97;100.00;99464.06;5062518;28;20513;-69
2023/02/24 08:24:48;;;;;;;10.03;2.03;;;;;;;3.01;100.00;99451.47;5072498;28;20460;-71
2023/02/24 08:27:18;;;;;;;9.37;2.67;;;;;;;3.25;100.00;99453.28;5060867;28;20485;-70
2023/02/24 08:29:57;;;;;;;10.40;2.40;;;;;;;3.15;100.00;99439.91;5064872;28;20789;-70
2023/02/24 08:32:25;;;;;;;9.50;2.60;;;;;;;3.17;100.00;99441.47;5075282;28;20548;-71
2023/02/24 08:35:01;;;;;;;6.43;2.47;;;;;;;3.11;100.00;99446.38;5064955;28;20468;-71
2023/02/24 08:37:32;;;;;;;6.27;2.20;;;;;;;3.28;100.00;99434.53;5065896;28;20541;-71
2023/02/24 08:39:58;;;;;;;10.37;2.87;;;;;;;3.36;100.00;99429.53;5061917;28;20487;-70
2023/02/24 08:42:33;;;;;;;5.80;2.43;;;;;;;3.17;100.00;99430.91;5069698;28;20559;-71
2023/02/24 08:45:00;;;;;;;6.30;2.60;;;;;;;3.28;100.00;99427.50;5062896;28;20452;-71
2023/02/24 08:47:29;;;;;;;5.30;2.03;;;;;;;3.34;100.00;99428.81;5062775;28;20486;-70
2023/02/24 08:50:00;;;;;;;5.97;2.30;;;;;;;3.10;100.00;99424.41;5062438;28;20468;-70
2023/02/24 08:52:27;;;;;;;8.33;1.80;;;;;;;3.26;100.00;99413.53;5064368;28;20517;-72
2023/02/24 08:54:58;;;;;;;11.80;1.97;;;;;;;3.07;100.00;99421.13;5049882;28;20469;-69
2023/02/24 08:57:25;;;;;;;15.00;2.60;;;;;;;3.22;100.00;99411.25;5042311;28;20519;-70
2023/02/24 08:59:56;;;;;;;6.13;2.63;;;;;;;3.16;100.00;99416.03;5080033;28;20518;-71
2023/02/24 09:02:26;;;;;;;19.60;3.20;;;;;;;3.07;100.00;99398.19;5081295;28;20484;-69
2023/02/24 09:04:55;;;;;;;5.40;2.17;;;;;;;3.07;100.00;99403.47;5084544;28;20451;-70
2023/02/24 09:07:24;;;;;;;9.67;3.10;;;;;;;3.05;100.00;99402.75;5083968;28;20478;-70
2023/02/24 09:09:55;;;;;;;13.80;2.60;;;;;;;3.05;100.00;99394.00;5082691;28;20521;-70
2023/02/24 09:12:23;;;;;;;13.87;3.03;;;;;;;3.09;100.00;99390.16;5083222;28;20487;-71
2023/02/24 09:14:54;;;;;;;8.00;2.47;;;;;;;2.93;100.00;99372.00;5084146;28;21001;-70
2023/02/24 09:17:38;;;;;;;9.27;3.03;;;;;;;3.07;100.00;99389.44;5082016;28;20486;-70
2023/02/24 09:22:59;;;;;;;11.63;2.40;;;;;;;3.12;100.00;99374.94;5068396;28;20575;-76
2023/02/24 09:25:39;;;;;;;9.00;2.23;;;;;;;2.94;100.00;99366.59;5060208;28;20476;-76
2023/02/24 09:28:08;;;;;;;6.70;2.27;;;;;;;3.14;100.00;99364.25;5058627;28;20513;-77
2023/02/24 09:30:36;;;;;;;8.93;2.50;;;;;;;2.98;100.00;99368.03;5059827;28;20474;-76
2023/02/24 09:33:16;;;;;;;6.53;2.27;;;;;;;2.64;100.00;99353.88;5057304;28;20992;-76
2023/02/24 09:35:45;;;;;;;7.50;2.80;;;;;;;2.95;100.00;99355.09;5062268;28;20474;-77
2023/02/24 09:38:15;;;;;;;5.30;2.70;;;;;;;2.64;100.00;99349.44;5071398;28;20940;-77
2023/02/24 09:40:47;;;;;;;12.00;3.20;;;;;;;2.77;100.00;99348.53;5061466;28;20468;-79
2023/02/24 09:43:17;;;;;;;10.63;2.90;;;;;;;2.75;100.00;99342.53;5082671;28;20453;-79
2023/02/24 09:45:56;;;;;;;7.70;3.03;;;;;;;2.70;100.00;99339.38;5082717;28;20465;-79
2023/02/24 09:48:30;;;;;;;7.03;3.00;;;;;;;2.66;100.00;99335.25;5065164;28;20471;-78
2023/02/24 09:51:04;;;;;;;8.10;2.30;;;;;;;2.68;100.00;99341.28;5058603;28;20478;-76
2023/02/24 09:53:38;;;;;;;5.20;2.70;;;;;;;2.57;100.00;99337.63;5084026;28;20456;-78
2023/02/24 09:56:14;;;;;;;6.33;2.83;;;;;;;2.69;100.00;99327.13;5081453;28;20656;-79
2023/02/24 09:58:47;;;;;;;7.80;2.70;;;;;;;2.55;100.00;99326.38;5078470;28;20478;-77
2023/02/24 10:01:29;;;;;;;10.60;2.70;;;;;;;2.77;100.00;99322.97;5057997;28;20471;-76
2023/02/24 10:04:04;;;;;;;5.67;3.50;;;;;;;2.83;100.00;99316.41;5043866;28;20515;-78
2023/02/24 10:06:37;;;;;;;7.83;3.03;;;;;;;2.85;100.00;99311.84;5073430;28;20770;-78
2023/02/24 10:09:12;;;;;;;7.50;2.87;;;;;;;2.97;100.00;99312.75;5067618;28;20445;-77
2023/02/24 10:11:52;;;;;;;7.10;3.30;;;;;;;3.30;100.00;99305.81;5056076;28;20574;-78
2023/02/24 10:14:21;;;;;;;4.47;2.73;;;;;;;2.96;100.00;99300.47;5060932;28;20448;-78
2023/02/24 10:17:21;;;;;;;6.83;2.90;;;;;;;3.22;100.00;99285.28;5055161;28;20548;-78
2023/02/24 10:19:40;;;;;;;7.00;2.53;;;;;;;3.06;100.00;99282.16;5055389;28;21136;-78
2023/02/24 10:22:26;;;;;;;5.23;2.70;;;;;;;2.93;100.00;99274.31;5052745;28;20482;-77
2023/02/24 10:25:09;;;;;;;4.20;2.70;;;;;;;2.88;100.00;99272.00;5059660;28;21026;-77
2023/02/24 10:27:43;;;;;;;6.23;3.13;;;;;;;2.91;100.00;99263.84;5050242;28;20476;-79
2023/02/24 10:30:19;;;;;;;5.20;2.23;;;;;;;2.71;100.00;99269.78;5058059;28;20459;-77
2023/02/24 10:32:57;;;;;;;3.90;2.30;;;;;;;2.64;100.00;99274.69;5040061;28;20451;-78
2023/02/24 10:35:32;;;;;;;6.60;4.30;;;;;;;2.74;100.00;99272.19;5045040;28;21382;-78
2023/02/24 10:38:04;;;;;;;9.33;3.57;;;;;;;2.81;100.00;99261.09;5060687;28;20491;-79
2023/02/24 10:40:43;;;;;;;5.53;3.50;;;;;;;2.71;100.00;99264.50;5059718;28;20486;-76
2023/02/24 10:43:16;;;;;;;6.53;3.93;;;;;;;3.08;100.00;99264.38;5050261;28;20459;-76
2023/02/24 10:45:44;;;;;;;9.30;4.10;;;;;;;3.16;100.00;99257.56;5055912;28;21047;-76
2023/02/24 10:48:23;;;;;;;4.53;3.70;;;;;;;2.88;100.00;99253.53;5054965;28;20460;-76
2023/02/24 10:50:53;;;;;;;7.10;4.30;;;;;;;2.87;100.00;99238.66;5056214;28;20465;-76
2023/02/24 10:53:33;;;;;;;6.07;3.70;;;;;;;2.84;100.00;99236.25;5056299;28;20468;-77
2023/02/24 10:58:48;;;;;;;7.23;5.70;;;;;;;3.15;100.00;99225.97;5040732;28;20490;-76
2023/02/24 11:01:19;;;;;;;7.90;4.23;;;;;;;3.11;100.00;99227.19;5052182;28;20472;-76
2023/02/24 11:04:01;;;;;;;7.67;5.17;;;;;;;2.94;100.00;99224.03;5051899;28;20459;-77
2023/02/24 11:06:54;;;;;;;10.70;5.97;;;;;;;2.99;100.00;99207.84;5053082;28;20488;-76
2023/02/24 11:09:34;;;;;;;5.73;4.90;;;;;;;2.81;100.00;99199.50;5060089;28;20456;-76
2023/02/24 11:17:44;;;;;;;7.30;6.70;;;;;;;2.87;100.00;99188.50;5053331;28;20567;-76
2023/02/24 11:20:21;;;;;;;10.23;7.40;;;;;;;2.90;100.00;99179.50;5058593;28;20502;-77
2023/02/24 11:22:50;;;;;;;9.33;7.50;;;;;;;2.72;100.00;99172.03;5057846;28;20484;-77
2023/02/24 11:25:21;;;;;;;11.67;7.00;;;;;;;2.86;100.00;99180.69;5050726;28;20463;-75
2023/02/24 11:27:50;;;;;;;7.57;6.20;;;;;;;2.68;100.00;99160.03;5056798;28;20463;-77
2023/02/24 11:30:25;;;;;;;9.37;6.63;;;;;;;2.66;100.00;99155.81;5055922;28;21592;-76
2023/02/24 11:33:12;;;;;;;9.30;7.80;;;;;;;2.82;100.00;99148.41;5062900;28;20494;-76
2023/02/24 11:35:47;;;;;;;6.60;6.00;;;;;;;2.89;100.00;99146.16;5058665;28;20510;-77
2023/02/24 11:38:26;;;;;;;8.37;6.60;;;;;;;2.99;100.00;99152.41;5057314;28;20504;-76
2023/02/24 11:41:01;;;;;;;7.10;6.40;;;;;;;2.87;100.00;99150.72;5050671;28;20484;-76
2023/02/24 11:43:32;;;;;;;9.57;6.73;;;;;;;2.86;100.00;99141.94;5059755;28;20485;-77
2023/02/24 11:46:03;;;;;;;8.30;6.10;;;;;;;2.94;100.00;99139.53;5057070;28;20480;-76
2023/02/24 11:48:32;;;;;;;9.47;6.70;;;;;;;2.93;100.00;99131.75;5048106;28;20489;-76
2023/02/24 11:51:02;;;;;;;7.93;5.03;;;;;;;2.81;100.00;99130.88;5059978;28;21051;-76
2023/02/24 11:53:32;;;;;;;7.73;5.47;;;;;;;2.76;100.00;99122.47;5052772;28;20435;-76
2023/02/24 11:56:02;;;;;;;6.80;6.10;;;;;;;2.72;100.00;99108.69;5053155;28;20753;-78
2023/02/24 11:58:37;;;;;;;7.60;5.80;;;;;;;2.91;100.00;99117.81;5052610;28;20534;-77
2023/02/24 12:01:12;;;;;;;7.10;6.43;;;;;;;2.87;100.00;99106.66;5044321;28;20474;-75
2023/02/24 12:03:48;;;;;;;6.80;5.90;;;;;;;2.95;100.00;99099.00;5053115;28;20466;-76